sensor_id;sensor_type;location;lat;lon;timestamp;pressure;altitude;pressure_sealevel;temperature
45034;BMP280;30771;47.988;-4.186;2024-01-15T00:00:13;99904.34;;;5.03
45034;BMP280;30771;47.988;-4.186;2024-01-15T00:02:40;99895.88;;;5.01
45034;BMP280;30771;47.988;-4.186;2024-01-15T00:05:07;99896.69;;;5.02
45034;BMP280;30771;47.988;-4.186;2024-01-15T00:07:35;99894.09;;;5.02
45034;BMP280;30771;47.988;-4.186;2024-01-15T00:10:02;99887.09;;;5.03
45034;BMP280;30771;47.988;-4.186;2024-01-15T00:12:29;99887.09;;;5.03
45034;BMP280;30771;47.988;-4.186;2024-01-15T00:14:56;99863.75;;;5.01
45034;BMP280;30771;47.988;-4.186;2024-01-15T00:17:22;99866.22;;;5.03
45034;BMP280;30771;47.988;-4.186;2024-01-15T00:19:49;99860.19;;;5.02
45034;BMP280;30771;47.988;-4.186;2024-01-15T00:22:16;99862.44;;;5.05
45034;BMP280;30771;47.988;-4.186;2024-01-15T00:24:43;99860.63;;;5.06
45034;BMP280;30771;47.988;-4.186;2024-01-15T00:27:10;99860.81;;;5.04
45034;BMP280;30771;47.988;-4.186;2024-01-15T00:29:37;99860.81;;;5.04
45034;BMP280;30771;47.988;-4.186;2024-01-15T00:32:04;99852.78;;;5.06
45034;BMP280;30771;47.988;-4.186;2024-01-15T00:34:31;99844.19;;;5.05
45034;BMP280;30771;47.988;-4.186;2024-01-15T00:36:58;99844.97;;;5.06
45034;BMP280;30771;47.988;-4.186;2024-01-15T00:39:24;99841.34;;;5.07
45034;BMP280;30771;47.988;-4.186;2024-01-15T00:41:52;99839.31;;;5.02
45034;BMP280;30771;47.988;-4.186;2024-01-15T00:44:19;99842.34;;;5.06
45034;BMP280;30771;47.988;-4.186;2024-01-15T00:46:46;99849.41;;;5.05
45034;BMP280;30771;47.988;-4.186;2024-01-15T00:49:13;99845.97;;;5.05
45034;BMP280;30771;47.988;-4.186;2024-01-15T00:51:41;99844.34;;;5.03
45034;BMP280;30771;47.988;-4.186;2024-01-15T00:54:08;99852.16;;;5.03
45034;BMP280;30771;47.988;-4.186;2024-01-15T00:56:35;99838.16;;;5.05
45034;BMP280;30771;47.988;-4.186;2024-01-15T00:59:02;99840.13;;;5.03
45034;BMP280;30771;47.988;-4.186;2024-01-15T01:01:28;99839.13;;;5.03
45034;BMP280;30771;47.988;-4.186;2024-01-15T01:03:56;99846.16;;;5.03
45034;BMP280;30771;47.988;-4.186;2024-01-15T01:06:23;99840.94;;;5.03
45034;BMP280;30771;47.988;-4.186;2024-01-15T01:08:50;99850.38;;;5.04
45034;BMP280;30771;47.988;-4.186;2024-01-15T01:11:16;99842.72;;;5.03
45034;BMP280;30771;47.988;-4.186;2024-01-15T01:13:43;99847.56;;;5.06
45034;BMP280;30771;47.988;-4.186;2024-01-15T01:16:10;99834.53;;;5.06
45034;BMP280;30771;47.988;-4.186;2024-01-15T01:18:37;99843.16;;;5.06
45034;BMP280;30771;47.988;-4.186;2024-01-15T01:21:04;99832.72;;;5.06
45034;BMP280;30771;47.988;-4.186;2024-01-15T01:23:30;99829.13;;;5.07
45034;BMP280;30771;47.988;-4.186;2024-01-15T01:25:57;99831.94;;;5.06
45034;BMP280;30771;47.988;-4.186;2024-01-15T01:28:24;99822.28;;;5.06
45034;BMP280;30771;47.988;-4.186;2024-01-15T01:30:50;99815.50;;;5.05
45034;BMP280;30771;47.988;-4.186;2024-01-15T01:33:17;99808.44;;;5.06
45034;BMP280;30771;47.988;-4.186;2024-01-15T01:35:44;99805.84;;;5.06
45034;BMP280;30771;47.988;-4.186;2024-01-15T01:38:12;99806.03;;;5.04
45034;BMP280;30771;47.988;-4.186;2024-01-15T01:40:39;99811.84;;;5.06
45034;BMP280;30771;47.988;-4.186;2024-01-15T01:43:05;99810.06;;;5.07
45034;BMP280;30771;47.988;-4.186;2024-01-15T01:45:32;99809.22;;;5.06
45034;BMP280;30771;47.988;-4.186;2024-01-15T01:48:00;99794.63;;;5.05
45034;BMP280;30771;47.988;-4.186;2024-01-15T01:50:29;99797.22;;;5.05
45034;BMP280;30771;47.988;-4.186;2024-01-15T01:52:58;99801.25;;;5.08
45034;BMP280;30771;47.988;-4.186;2024-01-15T01:55:27;99802.06;;;5.08
45034;BMP280;30771;47.988;-4.186;2024-01-15T01:57:56;99792.78;;;5.06
45034;BMP280;30771;47.988;-4.186;2024-01-15T02:00:23;99792.59;;;5.07
45034;BMP280;30771;47.988;-4.186;2024-01-15T02:02:50;99779.13;;;5.03
45034;BMP280;30771;47.988;-4.186;2024-01-15T02:05:18;99792.59;;;5.07
45034;BMP280;30771;47.988;-4.186;2024-01-15T02:07:46;99776.97;;;5.07
45034;BMP280;30771;47.988;-4.186;2024-01-15T02:10:13;99769.94;;;5.08
45034;BMP280;30771;47.988;-4.186;2024-01-15T02:12:40;99771.72;;;5.07
45034;BMP280;30771;47.988;-4.186;2024-01-15T02:15:08;99775.97;;;5.08
45034;BMP280;30771;47.988;-4.186;2024-01-15T02:17:58;99763.91;;;5.07
45034;BMP280;30771;47.988;-4.186;2024-01-15T02:20:25;99762.28;;;5.06
45034;BMP280;30771;47.988;-4.186;2024-01-15T02:22:52;99761.13;;;5.09
45034;BMP280;30771;47.988;-4.186;2024-01-15T02:25:20;99752.50;;;5.08
45034;BMP280;30771;47.988;-4.186;2024-01-15T02:27:47;99752.50;;;5.08
45034;BMP280;30771;47.988;-4.186;2024-01-15T02:30:13;99744.84;;;5.07
45034;BMP280;30771;47.988;-4.186;2024-01-15T02:32:40;99751.50;;;5.09
45034;BMP280;30771;47.988;-4.186;2024-01-15T02:35:07;99753.28;;;5.09
45034;BMP280;30771;47.988;-4.186;2024-01-15T02:37:35;99756.09;;;5.07
45034;BMP280;30771;47.988;-4.186;2024-01-15T02:40:02;99767.78;;;5.11
45034;BMP280;30771;47.988;-4.186;2024-01-15T02:42:29;99769.41;;;5.12
45034;BMP280;30771;47.988;-4.186;2024-01-15T02:44:56;99768.44;;;5.13
45034;BMP280;30771;47.988;-4.186;2024-01-15T02:47:22;99761.59;;;5.12
45034;BMP280;30771;47.988;-4.186;2024-01-15T02:49:49;99760.78;;;5.12
45034;BMP280;30771;47.988;-4.186;2024-01-15T02:52:16;99769.41;;;5.12
45034;BMP280;30771;47.988;-4.186;2024-01-15T02:54:42;99774.44;;;5.14
45034;BMP280;30771;47.988;-4.186;2024-01-15T02:57:09;99767.44;;;5.14
45034;BMP280;30771;47.988;-4.186;2024-01-15T02:59:36;99768.06;;;5.16
45034;BMP280;30771;47.988;-4.186;2024-01-15T03:02:03;99768.88;;;5.17
45034;BMP280;30771;47.988;-4.186;2024-01-15T03:04:29;99769.91;;;5.16
45034;BMP280;30771;47.988;-4.186;2024-01-15T03:06:56;99767.91;;;5.18
45034;BMP280;30771;47.988;-4.186;2024-01-15T03:09:23;99767.72;;;5.19
45034;BMP280;30771;47.988;-4.186;2024-01-15T03:11:50;99774.94;;;5.17
45034;BMP280;30771;47.988;-4.186;2024-01-15T03:14:17;99767.28;;;5.16
45034;BMP280;30771;47.988;-4.186;2024-01-15T03:16:43;99782.00;;;5.23
45034;BMP280;30771;47.988;-4.186;2024-01-15T03:19:10;99774.56;;;5.20
45034;BMP280;30771;47.988;-4.186;2024-01-15T03:21:37;99765.13;;;5.19
45034;BMP280;30771;47.988;-4.186;2024-01-15T03:24:04;99772.59;;;5.22
45034;BMP280;30771;47.988;-4.186;2024-01-15T03:26:31;99764.13;;;5.20
45034;BMP280;30771;47.988;-4.186;2024-01-15T03:28:57;99762.94;;;5.23
45034;BMP280;30771;47.988;-4.186;2024-01-15T03:31:24;99768.94;;;5.23
45034;BMP280;30771;47.988;-4.186;2024-01-15T03:33:51;99768.94;;;5.23
45034;BMP280;30771;47.988;-4.186;2024-01-15T03:36:18;99772.22;;;5.25
45034;BMP280;30771;47.988;-4.186;2024-01-15T03:38:45;99771.78;;;5.22
45034;BMP280;30771;47.988;-4.186;2024-01-15T03:41:11;99767.38;;;5.22
45034;BMP280;30771;47.988;-4.186;2024-01-15T03:43:38;99768.53;;;5.20
45034;BMP280;30771;47.988;-4.186;2024-01-15T03:46:06;99777.81;;;5.22
45034;BMP280;30771;47.988;-4.186;2024-01-15T03:48:33;99773.19;;;5.24
45034;BMP280;30771;47.988;-4.186;2024-01-15T03:51:00;99773.81;;;5.26
45034;BMP280;30771;47.988;-4.186;2024-01-15T03:53:27;99772.03;;;5.27
45034;BMP280;30771;47.988;-4.186;2024-01-15T03:55:54;99771.56;;;5.23
45034;BMP280;30771;47.988;-4.186;2024-01-15T03:58:20;99777.06;;;5.28
45034;BMP280;30771;47.988;-4.186;2024-01-15T04:00:47;99777.06;;;5.28
45034;BMP280;30771;47.988;-4.186;2024-01-15T04:03:14;99775.28;;;5.29
45034;BMP280;30771;47.988;-4.186;2024-01-15T04:05:41;99776.44;;;5.26
45034;BMP280;30771;47.988;-4.186;2024-01-15T04:08:08;99769.44;;;5.27
45034;BMP280;30771;47.988;-4.186;2024-01-15T04:10:34;99776.09;;;5.29
45034;BMP280;30771;47.988;-4.186;2024-01-15T04:13:01;99773.66;;;5.28
45034;BMP280;30771;47.988;-4.186;2024-01-15T04:15:30;99772.03;;;5.27
45034;BMP280;30771;47.988;-4.186;2024-01-15T04:17:56;99776.09;;;5.29
45034;BMP280;30771;47.988;-4.186;2024-01-15T04:20:23;99778.50;;;5.31
45034;BMP280;30771;47.988;-4.186;2024-01-15T04:22:51;99773.28;;;5.31
45034;BMP280;30771;47.988;-4.186;2024-01-15T04:25:18;99777.53;;;5.32
45034;BMP280;30771;47.988;-4.186;2024-01-15T04:27:45;99768.75;;;5.33
45034;BMP280;30771;47.988;-4.186;2024-01-15T04:30:12;99755.84;;;5.31
45034;BMP280;30771;47.988;-4.186;2024-01-15T04:32:40;99755.03;;;5.31
45034;BMP280;30771;47.988;-4.186;2024-01-15T04:35:07;99761.06;;;5.31
45034;BMP280;30771;47.988;-4.186;2024-01-15T04:37:33;99750.63;;;5.31
45034;BMP280;30771;47.988;-4.186;2024-01-15T04:40:02;99753.22;;;5.31
45034;BMP280;30771;47.988;-4.186;2024-01-15T04:42:30;99748.00;;;5.31
45034;BMP280;30771;47.988;-4.186;2024-01-15T04:44:57;99745.25;;;5.33
45034;BMP280;30771;47.988;-4.186;2024-01-15T04:47:24;99746.03;;;5.33
45034;BMP280;30771;47.988;-4.186;2024-01-15T04:49:51;99748.50;;;5.35
45034;BMP280;30771;47.988;-4.186;2024-01-15T04:52:18;99745.25;;;5.33
45034;BMP280;30771;47.988;-4.186;2024-01-15T04:54:45;99745.41;;;5.31
45034;BMP280;30771;47.988;-4.186;2024-01-15T04:57:12;99747.47;;;5.36
45034;BMP280;30771;47.988;-4.186;2024-01-15T04:59:39;99745.50;;;5.38
45034;BMP280;30771;47.988;-4.186;2024-01-15T05:02:06;99751.72;;;5.37
45034;BMP280;30771;47.988;-4.186;2024-01-15T05:04:33;99744.09;;;5.35
45034;BMP280;30771;47.988;-4.186;2024-01-15T05:06:59;99748.28;;;5.36
45034;BMP280;30771;47.988;-4.186;2024-01-15T05:09:26;99745.25;;;5.33
45034;BMP280;30771;47.988;-4.186;2024-01-15T05:11:57;99747.47;;;5.36
45034;BMP280;30771;47.988;-4.186;2024-01-15T05:14:23;99737.41;;;5.33
45034;BMP280;30771;47.988;-4.186;2024-01-15T05:16:50;99743.41;;;5.33
45034;BMP280;30771;47.988;-4.186;2024-01-15T05:19:18;99745.41;;;5.31
45034;BMP280;30771;47.988;-4.186;2024-01-15T05:21:45;99736.94;;;5.29
45034;BMP280;30771;47.988;-4.186;2024-01-15T05:24:12;99736.59;;;5.32
45034;BMP280;30771;47.988;-4.186;2024-01-15T05:26:38;99726.97;;;5.33
45034;BMP280;30771;47.988;-4.186;2024-01-15T05:29:05;99724.19;;;5.34
45034;BMP280;30771;47.988;-4.186;2024-01-15T05:31:32;99718.34;;;5.32
45034;BMP280;30771;47.988;-4.186;2024-01-15T05:33:59;99715.72;;;5.32
45034;BMP280;30771;47.988;-4.186;2024-01-15T05:36:26;99717.50;;;5.32
45034;BMP280;30771;47.988;-4.186;2024-01-15T05:38:53;99721.91;;;5.31
45034;BMP280;30771;47.988;-4.186;2024-01-15T05:41:19;99725.34;;;5.32
45034;BMP280;30771;47.988;-4.186;2024-01-15T05:43:46;99723.56;;;5.32
45034;BMP280;30771;47.988;-4.186;2024-01-15T05:46:13;99718.50;;;5.31
45034;BMP280;30771;47.988;-4.186;2024-01-15T05:48:40;99723.72;;;5.31
45034;BMP280;30771;47.988;-4.186;2024-01-15T05:51:07;99734.00;;;5.32
45034;BMP280;30771;47.988;-4.186;2024-01-15T05:53:35;99743.63;;;5.32
45034;BMP280;30771;47.988;-4.186;2024-01-15T05:56:02;99742.63;;;5.33
45034;BMP280;30771;47.988;-4.186;2024-01-15T05:58:29;99748.00;;;5.31
45034;BMP280;30771;47.988;-4.186;2024-01-15T06:00:55;99741.34;;;5.29
45034;BMP280;30771;47.988;-4.186;2024-01-15T06:03:22;99744.59;;;5.31
45034;BMP280;30771;47.988;-4.186;2024-01-15T06:05:49;99730.63;;;5.24
45034;BMP280;30771;47.988;-4.186;2024-01-15T06:08:16;99747.03;;;5.32
45034;BMP280;30771;47.988;-4.186;2024-01-15T06:10:42;99752.69;;;5.36
45034;BMP280;30771;47.988;-4.186;2024-01-15T06:13:09;99758.94;;;5.35
45034;BMP280;30771;47.988;-4.186;2024-01-15T06:15:36;99752.06;;;5.34
45034;BMP280;30771;47.988;-4.186;2024-01-15T06:18:03;99753.31;;;5.38
45034;BMP280;30771;47.988;-4.186;2024-01-15T06:20:30;99753.97;;;5.40
45034;BMP280;30771;47.988;-4.186;2024-01-15T06:22:57;99760.97;;;5.39
45034;BMP280;30771;47.988;-4.186;2024-01-15T06:25:24;99753.13;;;5.39
45034;BMP280;30771;47.988;-4.186;2024-01-15T06:27:50;99759.00;;;5.41
45034;BMP280;30771;47.988;-4.186;2024-01-15T06:30:17;99757.19;;;5.42
45034;BMP280;30771;47.988;-4.186;2024-01-15T06:32:44;99754.41;;;5.43
45034;BMP280;30771;47.988;-4.186;2024-01-15T06:35:11;99752.78;;;5.42
45034;BMP280;30771;47.988;-4.186;2024-01-15T06:37:38;99760.63;;;5.42
45034;BMP280;30771;47.988;-4.186;2024-01-15T06:40:05;99764.84;;;5.43
45034;BMP280;30771;47.988;-4.186;2024-01-15T06:42:32;99757.63;;;5.45
45034;BMP280;30771;47.988;-4.186;2024-01-15T06:44:59;99752.78;;;5.42
45034;BMP280;30771;47.988;-4.186;2024-01-15T06:47:26;99752.59;;;5.44
45034;BMP280;30771;47.988;-4.186;2024-01-15T06:49:53;99746.41;;;5.45
45034;BMP280;30771;47.988;-4.186;2024-01-15T06:52:20;99749.81;;;5.45
45034;BMP280;30771;47.988;-4.186;2024-01-15T06:54:46;99750.81;;;5.44
45034;BMP280;30771;47.988;-4.186;2024-01-15T06:57:14;99756.84;;;5.45
45034;BMP280;30771;47.988;-4.186;2024-01-15T06:59:41;99752.41;;;5.45
45034;BMP280;30771;47.988;-4.186;2024-01-15T07:02:08;99755.69;;;5.47
45034;BMP280;30771;47.988;-4.186;2024-01-15T07:04:34;99762.50;;;5.48
45034;BMP280;30771;47.988;-4.186;2024-01-15T07:07:01;99766.91;;;5.48
45034;BMP280;30771;47.988;-4.186;2024-01-15T07:09:27;99767.72;;;5.48
45034;BMP280;30771;47.988;-4.186;2024-01-15T07:11:54;99764.50;;;5.46
45034;BMP280;30771;47.988;-4.186;2024-01-15T07:14:23;99757.47;;;5.47
45034;BMP280;30771;47.988;-4.186;2024-01-15T07:16:50;99755.84;;;5.46
45034;BMP280;30771;47.988;-4.186;2024-01-15T07:19:16;99758.16;;;5.41
45034;BMP280;30771;47.988;-4.186;2024-01-15T07:21:43;99765.47;;;5.45
45034;BMP280;30771;47.988;-4.186;2024-01-15T07:24:10;99773.97;;;5.47
45034;BMP280;30771;47.988;-4.186;2024-01-15T07:26:37;99766.91;;;5.48
45034;BMP280;30771;47.988;-4.186;2024-01-15T07:29:04;99772.94;;;5.48
45034;BMP280;30771;47.988;-4.186;2024-01-15T07:31:31;99769.38;;;5.49
45034;BMP280;30771;47.988;-4.186;2024-01-15T07:33:57;99765.13;;;5.48
45034;BMP280;30771;47.988;-4.186;2024-01-15T07:36:24;99768.53;;;5.49
45034;BMP280;30771;47.988;-4.186;2024-01-15T07:38:51;99771.16;;;5.49
45034;BMP280;30771;47.988;-4.186;2024-01-15T07:41:18;99766.91;;;5.48
45034;BMP280;30771;47.988;-4.186;2024-01-15T07:43:44;99777.53;;;5.46
45034;BMP280;30771;47.988;-4.186;2024-01-15T07:46:11;99775.75;;;5.47
45034;BMP280;30771;47.988;-4.186;2024-01-15T07:48:38;99775.28;;;5.43
45034;BMP280;30771;47.988;-4.186;2024-01-15T07:51:05;99782.13;;;5.44
45034;BMP280;30771;47.988;-4.186;2024-01-15T07:53:31;99791.56;;;5.45
45034;BMP280;30771;47.988;-4.186;2024-01-15T07:55:58;99780.50;;;5.43
45034;BMP280;30771;47.988;-4.186;2024-01-15T07:58:25;99791.75;;;5.44
45034;BMP280;30771;47.988;-4.186;2024-01-15T08:00:52;99793.38;;;5.45
45034;BMP280;30771;47.988;-4.186;2024-01-15T08:03:19;99794.03;;;5.47
45034;BMP280;30771;47.988;-4.186;2024-01-15T08:05:46;99796.44;;;5.48
45034;BMP280;30771;47.988;-4.186;2024-01-15T08:08:13;99806.72;;;5.50
45034;BMP280;30771;47.988;-4.186;2024-01-15T08:10:40;99802.28;;;5.50
45034;BMP280;30771;47.988;-4.186;2024-01-15T08:13:07;99808.34;;;5.51
45034;BMP280;30771;47.988;-4.186;2024-01-15T08:15:36;99809.16;;;5.51
45034;BMP280;30771;47.988;-4.186;2024-01-15T08:18:02;99809.78;;;5.53
45034;BMP280;30771;47.988;-4.186;2024-01-15T08:20:29;99811.56;;;5.53
45034;BMP280;30771;47.988;-4.186;2024-01-15T08:22:57;99817.97;;;5.50
45034;BMP280;30771;47.988;-4.186;2024-01-15T08:25:24;99823.63;;;5.54
45034;BMP280;30771;47.988;-4.186;2024-01-15T08:27:52;99813.19;;;5.54
45034;BMP280;30771;47.988;-4.186;2024-01-15T08:30:19;99821.00;;;5.54
45034;BMP280;30771;47.988;-4.186;2024-01-15T08:32:47;99812.38;;;5.53
45034;BMP280;30771;47.988;-4.186;2024-01-15T08:35:14;99810.78;;;5.52
45034;BMP280;30771;47.988;-4.186;2024-01-15T08:37:41;99814.72;;;5.48
45034;BMP280;30771;47.988;-4.186;2024-01-15T08:40:08;99816.34;;;5.49
45034;BMP280;30771;47.988;-4.186;2024-01-15T08:42:35;99818.78;;;5.51
45034;BMP280;30771;47.988;-4.186;2024-01-15T08:45:01;99822.19;;;5.51
45034;BMP280;30771;47.988;-4.186;2024-01-15T08:47:28;99831.69;;;5.52
45034;BMP280;30771;47.988;-4.186;2024-01-15T08:49:55;99834.06;;;5.54
45034;BMP280;30771;47.988;-4.186;2024-01-15T08:52:22;99846.13;;;5.55
45034;BMP280;30771;47.988;-4.186;2024-01-15T08:54:48;99850.00;;;5.59
45034;BMP280;30771;47.988;-4.186;2024-01-15T08:57:15;99857.84;;;5.59
45034;BMP280;30771;47.988;-4.186;2024-01-15T08:59:42;99863.88;;;5.59
45034;BMP280;30771;47.988;-4.186;2024-01-15T09:02:09;99878.19;;;5.63
45034;BMP280;30771;47.988;-4.186;2024-01-15T09:04:36;99873.31;;;5.60
45034;BMP280;30771;47.988;-4.186;2024-01-15T09:07:03;99879.72;;;5.58
45034;BMP280;30771;47.988;-4.186;2024-01-15T09:09:29;99870.84;;;5.52
45034;BMP280;30771;47.988;-4.186;2024-01-15T09:11:56;99884.38;;;5.48
45034;BMP280;30771;47.988;-4.186;2024-01-15T09:14:24;99881.00;;;5.47
45034;BMP280;30771;47.988;-4.186;2024-01-15T09:17:04;99879.69;;;5.43
45034;BMP280;30771;47.988;-4.186;2024-01-15T09:19:31;99896.50;;;5.41
45034;BMP280;30771;47.988;-4.186;2024-01-15T09:21:58;99891.84;;;5.36
45034;BMP280;30771;47.988;-4.186;2024-01-15T09:24:25;99900.13;;;5.40
45034;BMP280;30771;47.988;-4.186;2024-01-15T09:26:54;99899.13;;;5.41
45034;BMP280;30771;47.988;-4.186;2024-01-15T09:29:21;99894.72;;;5.41
45034;BMP280;30771;47.988;-4.186;2024-01-15T09:31:51;99893.03;;;5.48
45034;BMP280;30771;47.988;-4.186;2024-01-15T09:34:18;99895.75;;;5.55
45034;BMP280;30771;47.988;-4.186;2024-01-15T09:36:45;99898.56;;;5.68
45034;BMP280;30771;47.988;-4.186;2024-01-15T09:39:12;99898.00;;;5.72
45034;BMP280;30771;47.988;-4.186;2024-01-15T09:41:39;99899.38;;;5.83
45034;BMP280;30771;47.988;-4.186;2024-01-15T09:44:06;99893.88;;;5.93
45034;BMP280;30771;47.988;-4.186;2024-01-15T09:46:36;99892.00;;;6.01
45034;BMP280;30771;47.988;-4.186;2024-01-15T09:49:03;99901.38;;;6.10
45034;BMP280;30771;47.988;-4.186;2024-01-15T09:51:32;99903.88;;;6.18
45034;BMP280;30771;47.988;-4.186;2024-01-15T09:53:59;99911.19;;;6.23
45034;BMP280;30771;47.988;-4.186;2024-01-15T09:56:26;99913.22;;;6.27
45034;BMP280;30771;47.988;-4.186;2024-01-15T09:58:53;99917.09;;;6.31
45034;BMP280;30771;47.988;-4.186;2024-01-15T10:01:20;99915.56;;;6.37
45034;BMP280;30771;47.988;-4.186;2024-01-15T10:03:47;99913.66;;;6.45
45034;BMP280;30771;47.988;-4.186;2024-01-15T10:06:16;99917.72;;;6.48
45034;BMP280;30771;47.988;-4.186;2024-01-15T10:08:51;99917.97;;;6.53
45034;BMP280;30771;47.988;-4.186;2024-01-15T10:11:17;99922.75;;;6.49
45034;BMP280;30771;47.988;-4.186;2024-01-15T10:13:44;99933.22;;;6.49
45034;BMP280;30771;47.988;-4.186;2024-01-15T10:16:12;99941.50;;;6.53
45034;BMP280;30771;47.988;-4.186;2024-01-15T10:18:39;99952.84;;;6.60
45034;BMP280;30771;47.988;-4.186;2024-01-15T10:21:07;99948.25;;;6.62
45034;BMP280;30771;47.988;-4.186;2024-01-15T10:23:34;99951.72;;;6.69
45034;BMP280;30771;47.988;-4.186;2024-01-15T10:26:03;99962.00;;;6.71
45034;BMP280;30771;47.988;-4.186;2024-01-15T10:28:30;99976.09;;;6.70
45034;BMP280;30771;47.988;-4.186;2024-01-15T10:30:59;99992.06;;;6.75
45034;BMP280;30771;47.988;-4.186;2024-01-15T10:33:27;99989.69;;;6.80
45034;BMP280;30771;47.988;-4.186;2024-01-15T10:35:59;100006.03;;;6.82
45034;BMP280;30771;47.988;-4.186;2024-01-15T10:38:27;100013.50;;;6.85
45034;BMP280;30771;47.988;-4.186;2024-01-15T10:40:54;100022.00;;;6.87
45034;BMP280;30771;47.988;-4.186;2024-01-15T10:43:22;100023.44;;;6.89
45034;BMP280;30771;47.988;-4.186;2024-01-15T10:45:54;100034.94;;;6.95
45034;BMP280;30771;47.988;-4.186;2024-01-15T10:48:21;100048.47;;;6.98
45034;BMP280;30771;47.988;-4.186;2024-01-15T10:50:49;100057.41;;;7.04
45034;BMP280;30771;47.988;-4.186;2024-01-15T10:53:17;100059.66;;;7.07
45034;BMP280;30771;47.988;-4.186;2024-01-15T10:55:45;100075.81;;;6.96
45034;BMP280;30771;47.988;-4.186;2024-01-15T10:58:14;100099.47;;;7.02
45034;BMP280;30771;47.988;-4.186;2024-01-15T11:00:41;100110.19;;;7.07
45034;BMP280;30771;47.988;-4.186;2024-01-15T11:03:08;100127.25;;;7.03
45034;BMP280;30771;47.988;-4.186;2024-01-15T11:05:39;100148.66;;;7.07
45034;BMP280;30771;47.988;-4.186;2024-01-15T11:08:06;100185.94;;;7.09
45034;BMP280;30771;47.988;-4.186;2024-01-15T11:16:10;100271.72;;;7.21
45034;BMP280;30771;47.988;-4.186;2024-01-15T11:18:38;100296.72;;;7.24
45034;BMP280;30771;47.988;-4.186;2024-01-15T11:34:09;100469.66;;;7.30
45034;BMP280;30771;47.988;-4.186;2024-01-15T11:41:55;100563.69;;;7.40
45034;BMP280;30771;47.988;-4.186;2024-01-15T11:44:22;100574.00;;;7.41
45034;BMP280;30771;47.988;-4.186;2024-01-15T11:47:10;100619.25;;;7.35
45034;BMP280;30771;47.988;-4.186;2024-01-15T11:50:00;100657.53;;;7.36
45034;BMP280;30771;47.988;-4.186;2024-01-15T11:52:36;100687.16;;;7.37
45034;BMP280;30771;47.988;-4.186;2024-01-15T11:55:24;100700.72;;;7.40
45034;BMP280;30771;47.988;-4.186;2024-01-15T11:57:53;100707.91;;;7.46
45034;BMP280;30771;47.988;-4.186;2024-01-15T12:00:24;100707.25;;;7.44
45034;BMP280;30771;47.988;-4.186;2024-01-15T12:02:50;100715.94;;;7.45
45034;BMP280;30771;47.988;-4.186;2024-01-15T12:05:20;100739.38;;;7.38
45034;BMP280;30771;47.988;-4.186;2024-01-15T12:07:48;100769.66;;;7.41
45034;BMP280;30771;47.988;-4.186;2024-01-15T12:10:17;100792.94;;;7.36
45034;BMP280;30771;47.988;-4.186;2024-01-15T12:12:58;100803.22;;;7.45
45034;BMP280;30771;47.988;-4.186;2024-01-15T12:15:27;100807.94;;;7.50
45034;BMP280;30771;47.988;-4.186;2024-01-15T12:17:56;100793.19;;;7.57
45034;BMP280;30771;47.988;-4.186;2024-01-15T12:20:26;100800.72;;;7.60
45034;BMP280;30771;47.988;-4.186;2024-01-15T12:22:53;100805.25;;;7.66
45034;BMP280;30771;47.988;-4.186;2024-01-15T12:25:30;100785.72;;;7.77
45034;BMP280;30771;47.988;-4.186;2024-01-15T12:27:59;100771.88;;;7.91
45034;BMP280;30771;47.988;-4.186;2024-01-15T12:30:27;100759.63;;;8.06
45034;BMP280;30771;47.988;-4.186;2024-01-15T12:32:55;100753.34;;;8.15
45034;BMP280;30771;47.988;-4.186;2024-01-15T12:35:24;100758.09;;;8.19
45034;BMP280;30771;47.988;-4.186;2024-01-15T12:37:50;100770.84;;;8.22
45034;BMP280;30771;47.988;-4.186;2024-01-15T12:40:21;100786.44;;;8.24
45034;BMP280;30771;47.988;-4.186;2024-01-15T12:42:49;100803.00;;;8.24
45034;BMP280;30771;47.988;-4.186;2024-01-15T12:45:16;100815.44;;;8.22
45034;BMP280;30771;47.988;-4.186;2024-01-15T12:47:44;100814.97;;;8.19
45034;BMP280;30771;47.988;-4.186;2024-01-15T12:50:12;100824.38;;;8.05
45034;BMP280;30771;47.988;-4.186;2024-01-15T12:52:46;100835.88;;;8.04
45034;BMP280;30771;47.988;-4.186;2024-01-15T12:55:13;100834.44;;;8.02
45034;BMP280;30771;47.988;-4.186;2024-01-15T12:57:41;100822.94;;;8.03
45034;BMP280;30771;47.988;-4.186;2024-01-15T13:00:09;100831.63;;;8.03
45034;BMP280;30771;47.988;-4.186;2024-01-15T13:02:40;100822.97;;;7.95
45034;BMP280;30771;47.988;-4.186;2024-01-15T13:05:09;100822.09;;;7.80
45034;BMP280;30771;47.988;-4.186;2024-01-15T13:07:39;100821.44;;;7.78
45034;BMP280;30771;47.988;-4.186;2024-01-15T13:10:06;100821.94;;;7.73
45034;BMP280;30771;47.988;-4.186;2024-01-15T13:12:34;100821.75;;;7.75
45034;BMP280;30771;47.988;-4.186;2024-01-15T13:15:01;100823.56;;;7.74
45034;BMP280;30771;47.988;-4.186;2024-01-15T13:17:30;100825.34;;;7.74
45034;BMP280;30771;47.988;-4.186;2024-01-15T13:19:57;100833.94;;;7.68
45034;BMP280;30771;47.988;-4.186;2024-01-15T13:22:25;100825.53;;;7.72
45034;BMP280;30771;47.988;-4.186;2024-01-15T13:24:59;100815.88;;;7.73
45034;BMP280;30771;47.988;-4.186;2024-01-15T13:27:26;100811.16;;;7.68
45034;BMP280;30771;47.988;-4.186;2024-01-15T13:29:54;100815.72;;;7.66
45034;BMP280;30771;47.988;-4.186;2024-01-15T13:32:25;100811.16;;;7.68
45034;BMP280;30771;47.988;-4.186;2024-01-15T13:34:55;100813.28;;;7.65
45034;BMP280;30771;47.988;-4.186;2024-01-15T13:37:23;100811.31;;;7.67
45034;BMP280;30771;47.988;-4.186;2024-01-15T13:39:51;100805.25;;;7.66
45034;BMP280;30771;47.988;-4.186;2024-01-15T13:42:19;100804.09;;;7.69
45034;BMP280;30771;47.988;-4.186;2024-01-15T13:44:49;100810.63;;;7.73
45034;BMP280;30771;47.988;-4.186;2024-01-15T13:47:16;100797.84;;;7.78
45034;BMP280;30771;47.988;-4.186;2024-01-15T13:49:42;100806.78;;;7.83
45034;BMP280;30771;47.988;-4.186;2024-01-15T13:52:09;100801.06;;;7.88
45034;BMP280;30771;47.988;-4.186;2024-01-15T13:54:36;100792.50;;;7.94
45034;BMP280;30771;47.988;-4.186;2024-01-15T13:57:15;100791.50;;;7.95
45034;BMP280;30771;47.988;-4.186;2024-01-15T13:59:43;100792.84;;;7.91
45034;BMP280;30771;47.988;-4.186;2024-01-15T14:02:09;100789.69;;;7.95
45034;BMP280;30771;47.988;-4.186;2024-01-15T14:04:37;100779.69;;;7.99
45034;BMP280;30771;47.988;-4.186;2024-01-15T14:07:04;100776.75;;;8.02
45034;BMP280;30771;47.988;-4.186;2024-01-15T14:09:31;100779.19;;;8.03
45034;BMP280;30771;47.988;-4.186;2024-01-15T14:11:59;100769.53;;;8.04
45034;BMP280;30771;47.988;-4.186;2024-01-15T14:14:25;100777.56;;;8.02
45034;BMP280;30771;47.988;-4.186;2024-01-15T14:16:52;100773.13;;;8.03
45034;BMP280;30771;47.988;-4.186;2024-01-15T14:19:19;100778.19;;;8.04
45034;BMP280;30771;47.988;-4.186;2024-01-15T14:21:48;100767.69;;;8.04
45034;BMP280;30771;47.988;-4.186;2024-01-15T14:24:15;100766.25;;;8.02
45034;BMP280;30771;47.988;-4.186;2024-01-15T14:26:43;100765.63;;;8.00
45034;BMP280;30771;47.988;-4.186;2024-01-15T14:29:10;100765.53;;;7.85
45034;BMP280;30771;47.988;-4.186;2024-01-15T14:31:37;100761.63;;;7.81